Time;durP1;ratioP1;P1;durP2;ratioP2;P2;SDS_P1;SDS_P2;PMS_P1;PMS_P2;Temp;Humidity;BMP_temperature;BMP_pressure;BME280_temperature;BME280_humidity;BME280_pressure;Samples;Min_cycle;Max_cycle;Signal;HPM_P1;HPM_P2
2022/02/17 00:01:28;;;;;;;7.45;3.33;;;;;;;9.83;68.55;97897.16;1939017;91;27729;-68
2022/02/17 00:04:30;;;;;;;5.85;2.95;;;;;;;9.88;68.56;97881.54;1938985;91;28114;-67
2022/02/17 00:07:32;;;;;;;9.88;3.98;;;;;;;9.91;68.83;97873.26;1938626;91;31214;-69
2022/02/17 00:10:35;;;;;;;7.30;2.33;;;;;;;9.94;69.31;97862.77;1938610;91;33928;-68
2022/02/17 00:13:37;;;;;;;4.30;2.95;;;;;;;9.94;69.70;97856.09;1938933;91;29278;-68
2022/02/17 00:16:39;;;;;;;7.92;3.95;;;;;;;9.93;69.94;97827.68;1938970;91;27740;-68
2022/02/17 00:19:41;;;;;;;13.70;5.47;;;;;;;9.90;70.20;97801.20;1938926;91;28756;-68
2022/02/17 00:22:42;;;;;;;5.70;3.42;;;;;;;9.86;70.49;97799.26;1938884;91;32034;-68
2022/02/17 00:25:44;;;;;;;7.70;4.30;;;;;;;9.82;70.75;97790.66;1938947;91;33144;-68
2022/02/17 00:28:46;;;;;;;6.20;3.40;;;;;;;9.77;71.01;97792.05;1938897;91;29359;-69
2022/02/17 00:31:48;;;;;;;7.58;2.72;;;;;;;9.72;71.46;97775.91;1939014;90;27726;-68
2022/02/17 00:34:50;;;;;;;4.62;2.67;;;;;;;9.68;71.82;97771.80;1938770;90;28722;-69
2022/02/17 00:37:53;;;;;;;5.53;2.75;;;;;;;9.63;71.76;97751.33;1938994;91;31033;-69
2022/02/17 00:40:54;;;;;;;9.38;4.47;;;;;;;9.62;71.79;97746.09;1938829;90;33778;-68
2022/02/17 00:43:56;;;;;;;8.93;3.10;;;;;;;9.58;71.96;97738.37;1938821;91;29174;-68
2022/02/17 00:46:58;;;;;;;5.00;2.27;;;;;;;9.56;72.15;97706.92;1939052;91;27738;-68
2022/02/17 00:50:00;;;;;;;6.87;3.25;;;;;;;9.56;72.15;97706.06;1938924;90;29491;-68
2022/02/17 00:53:02;;;;;;;5.90;2.50;;;;;;;9.56;72.59;97704.72;1938887;90;31858;-68
2022/02/17 00:56:04;;;;;;;4.95;2.62;;;;;;;9.56;72.38;97704.72;1938600;91;32863;-68
2022/02/17 00:59:06;;;;;;;6.17;2.52;;;;;;;9.56;72.44;97713.60;1938886;91;29449;-68
2022/02/17 01:02:08;;;;;;;3.15;1.75;;;;;;;9.57;72.53;97709.09;1935466;90;28210;-68
2022/02/17 01:05:10;;;;;;;7.08;2.95;;;;;;;9.57;72.65;97712.63;1938172;90;28762;-68
2022/02/17 01:08:11;;;;;;;2.58;1.57;;;;;;;9.60;72.56;97693.30;1938658;91;31177;-68
2022/02/17 01:11:13;;;;;;;3.30;1.37;;;;;;;9.62;72.57;97692.64;1939089;91;33813;-70
2022/02/17 01:14:15;;;;;;;4.03;2.10;;;;;;;9.65;72.49;97685.22;1939272;90;29340;-67
2022/02/17 01:17:17;;;;;;;6.37;2.70;;;;;;;9.68;72.45;97653.35;1939261;91;28026;-68
2022/02/17 01:20:19;;;;;;;3.15;1.80;;;;;;;9.73;72.42;97645.27;1939219;91;28663;-68
2022/02/17 01:23:21;;;;;;;1.65;1.00;;;;;;;9.78;72.30;97627.47;1938967;91;31882;-68
2022/02/17 01:26:22;;;;;;;2.10;1.07;;;;;;;9.83;72.17;97620.41;1938862;91;32543;-68
2022/02/17 01:29:24;;;;;;;1.25;0.78;;;;;;;9.86;72.16;97602.24;1938168;91;29334;-68
2022/02/17 01:32:26;;;;;;;2.45;1.30;;;;;;;9.91;72.16;97598.31;1939205;90;27775;-68
2022/02/17 01:35:28;;;;;;;2.77;1.10;;;;;;;9.92;72.26;97576.77;1939090;90;29475;-68
2022/02/17 01:38:30;;;;;;;3.25;1.40;;;;;;;9.93;72.51;97570.95;1909413;92;32023;-68
2022/02/17 01:41:32;;;;;;;5.40;2.55;;;;;;;9.94;72.57;97548.53;1933874;91;33986;-68
2022/02/17 01:44:35;;;;;;;8.08;2.33;;;;;;;9.92;72.62;97538.00;1939011;91;29392;-67
2022/02/17 01:47:37;;;;;;;4.03;1.67;;;;;;;9.90;72.70;97523.91;1939064;91;28719;-67
2022/02/17 01:50:41;;;;;;;4.50;2.17;;;;;;;9.89;72.65;97510.19;1939011;91;28733;-68
2022/02/17 01:53:42;;;;;;;5.70;2.00;;;;;;;9.89;72.68;97500.83;1939168;90;31853;-68
2022/02/17 01:56:45;;;;;;;7.20;2.70;;;;;;;9.90;72.67;97493.67;1938950;90;32965;-68
2022/02/17 01:59:47;;;;;;;2.77;1.50;;;;;;;9.91;72.79;97485.50;1938998;91;29334;-68
2022/02/17 02:02:49;;;;;;;1.82;0.80;;;;;;;9.92;72.90;97477.00;1939054;91;27742;-68
2022/02/17 02:05:50;;;;;;;1.62;0.85;;;;;;;9.94;72.55;97469.17;1945097;90;28713;-68
2022/02/17 02:08:53;;;;;;;1.98;0.95;;;;;;;9.97;72.44;97458.19;1934462;90;32320;-68
2022/02/17 02:11:54;;;;;;;4.22;1.42;;;;;;;10.00;72.40;97449.89;1930746;92;33017;-68
2022/02/17 02:14:58;;;;;;;1.55;0.95;;;;;;;10.03;72.21;97449.58;1932096;91;29363;-68
2022/02/17 02:18:00;;;;;;;1.77;0.88;;;;;;;10.06;72.12;97431.56;1936924;91;27865;-68
2022/02/17 02:21:04;;;;;;;0.70;0.50;;;;;;;10.09;72.09;97428.60;1936041;91;29550;-68
2022/02/17 02:24:07;;;;;;;0.98;0.62;;;;;;;10.13;72.02;97412.11;1934975;92;32211;-68
2022/02/17 02:27:14;;;;;;;0.45;0.45;;;;;;;10.16;71.98;97411.83;1936783;91;32981;-68
2022/02/17 02:30:16;;;;;;;1.47;0.60;;;;;;;10.21;71.82;97394.50;1931355;91;29374;-68
2022/02/17 02:33:21;;;;;;;0.90;0.70;;;;;;;10.21;71.70;97390.48;1931554;92;27732;-68
2022/02/17 02:36:23;;;;;;;1.42;0.80;;;;;;;10.18;71.60;97387.59;1935894;91;28905;-68
2022/02/17 02:39:25;;;;;;;0.78;0.60;;;;;;;10.14;71.56;97363.48;1936495;91;31885;-68
2022/02/17 02:42:27;;;;;;;0.93;0.70;;;;;;;10.08;71.58;97352.88;1936952;91;33151;-68
2022/02/17 02:45:29;;;;;;;0.60;0.55;;;;;;;10.03;71.68;97367.17;1936965;91;30125;-68
2022/02/17 02:48:31;;;;;;;2.02;0.70;;;;;;;10.00;71.79;97352.27;1936876;91;27745;-68
2022/02/17 02:51:32;;;;;;;0.90;0.70;;;;;;;10.01;71.94;97339.73;1936943;91;29514;-70
2022/02/17 02:54:35;;;;;;;1.57;0.80;;;;;;;10.04;72.11;97338.94;1936867;91;31044;-68
2022/02/17 02:57:36;;;;;;;1.75;0.62;;;;;;;10.09;72.20;97326.95;1935656;90;32988;-68
2022/02/17 03:00:39;;;;;;;1.10;0.75;;;;;;;10.13;72.13;97319.00;1936446;91;28726;-68
2022/02/17 03:03:40;;;;;;;0.40;0.40;;;;;;;10.17;72.18;97316.38;1936893;91;27714;-69
2022/02/17 03:06:42;;;;;;;1.98;0.45;;;;;;;10.21;72.21;97316.92;1936549;91;28087;-68
2022/02/17 03:09:44;;;;;;;3.83;0.45;;;;;;;10.26;72.24;97321.34;1938420;91;31876;-68
2022/02/17 03:12:46;;;;;;;1.85;1.10;;;;;;;10.32;72.20;97307.34;1936481;90;34063;-68
2022/02/17 03:15:48;;;;;;;0.50;0.50;;;;;;;10.38;72.29;97310.81;1934542;91;29348;-68
2022/02/17 03:18:50;;;;;;;0.60;0.60;;;;;;;10.46;72.17;97298.84;1938695;91;27705;-68
2022/02/17 03:21:52;;;;;;;0.82;0.50;;;;;;;10.52;72.03;97294.72;1934249;91;29569;-68
2022/02/17 03:24:54;;;;;;;0.33;0.33;;;;;;;10.58;71.95;97275.39;1932452;91;31049;-68
2022/02/17 03:27:55;;;;;;;0.30;0.30;;;;;;;10.61;71.79;97284.95;1939090;91;32961;-68
2022/02/17 03:30:57;;;;;;;0.57;0.50;;;;;;;10.62;71.69;97278.59;1938934;90;30131;-68
2022/02/17 03:33:59;;;;;;;0.50;0.50;;;;;;;10.62;71.70;97278.59;1937586;91;27740;-69
2022/02/17 03:37:00;;;;;;;0.80;0.80;;;;;;;10.64;71.72;97277.95;1935444;90;28647;-69
2022/02/17 03:40:03;;;;;;;0.50;0.50;;;;;;;10.64;71.68;97280.63;1933433;92;31049;-68
2022/02/17 03:43:05;;;;;;;1.80;0.80;;;;;;;10.62;71.76;97282.13;1932884;92;33041;-69
2022/02/17 03:46:07;;;;;;;1.70;1.60;;;;;;;10.64;71.93;97293.54;1933667;91;30129;-69
2022/02/17 03:49:08;;;;;;;3.15;2.85;;;;;;;10.71;71.95;97287.56;1932430;92;27659;-69
2022/02/17 03:52:10;;;;;;;4.17;2.42;;;;;;;10.74;71.87;97284.10;1933150;91;28746;-68
2022/02/17 03:55:12;;;;;;;4.92;4.00;;;;;;;10.76;71.83;97280.75;1936390;91;32097;-68
2022/02/17 04:01:36;;;;;;;7.55;5.47;;;;;;;10.78;71.57;97271.24;1938696;91;29432;-68
2022/02/17 04:04:37;;;;;;;9.03;5.80;;;;;;;10.79;71.56;97248.83;1939031;91;27717;-68
2022/02/17 04:07:40;;;;;;;12.37;7.00;;;;;;;10.80;71.57;97250.52;1938819;90;29485;-69
2022/02/17 04:10:42;;;;;;;14.33;7.12;;;;;;;10.86;71.55;97271.81;1938951;91;31929;-68
2022/02/17 04:13:44;;;;;;;4.37;1.80;;;;;;;10.94;71.92;97419.19;1937929;91;33785;-63
2022/02/17 04:16:46;;;;;;;8.38;1.07;;;;;;;10.92;72.19;97553.78;1938804;91;30207;-66
2022/02/17 04:19:48;;;;;;;1.92;0.80;;;;;;;10.56;70.41;97554.42;1938131;90;28320;-67
2022/02/17 04:22:50;;;;;;;5.10;0.80;;;;;;;10.15;70.04;97547.08;1938963;91;29488;-67
2022/02/17 04:25:52;;;;;;;4.97;0.90;;;;;;;9.79;70.12;97526.73;1938905;91;31862;-67
2022/02/17 04:28:55;;;;;;;5.85;1.35;;;;;;;9.41;70.04;97510.02;1938860;91;33848;-67
2022/02/17 04:31:57;;;;;;;5.92;0.62;;;;;;;9.06;70.32;97487.81;1938909;91;29410;-66
2022/02/17 04:34:59;;;;;;;3.90;0.80;;;;;;;8.78;70.56;97468.88;1939027;91;27745;-66
2022/02/17 04:38:01;;;;;;;2.72;1.07;;;;;;;8.53;70.85;97495.53;1939034;91;29498;-66
2022/02/17 04:44:23;;;;;;;4.60;0.72;;;;;;;8.17;71.50;97477.20;1938665;91;33810;-66
2022/02/17 04:47:25;;;;;;;3.80;0.95;;;;;;;8.05;71.78;97483.95;1938675;90;29401;-66
2022/02/17 04:50:27;;;;;;;7.35;1.15;;;;;;;7.95;71.94;97476.36;1939016;91;27709;-66
2022/02/17 04:53:29;;;;;;;2.55;1.00;;;;;;;7.88;72.15;97466.70;1939040;90;29523;-66
2022/02/17 04:56:31;;;;;;;4.95;1.27;;;;;;;7.82;72.38;97469.05;1938934;90;32022;-66
2022/02/17 04:59:34;;;;;;;8.43;1.25;;;;;;;7.77;72.49;97441.45;1938908;91;33860;-66
2022/02/17 05:02:36;;;;;;;3.00;0.75;;;;;;;7.74;72.70;97464.36;1938949;90;30140;-66
2022/02/17 05:05:38;;;;;;;4.50;0.90;;;;;;;7.72;72.76;97486.29;1939272;90;27722;-66
2022/02/17 05:08:40;;;;;;;3.05;1.00;;;;;;;7.70;72.98;97466.91;1938960;90;28669;-66
2022/02/17 05:11:42;;;;;;;7.30;1.50;;;;;;;7.70;73.15;97464.25;1939030;91;31928;-66
2022/02/17 05:14:44;;;;;;;6.37;1.85;;;;;;;7.68;73.29;97470.22;1938910;91;33810;-67
2022/02/17 05:17:46;;;;;;;2.27;0.82;;;;;;;7.67;73.43;97480.02;1934575;90;29401;-66
2022/02/17 05:20:48;;;;;;;6.67;1.10;;;;;;;7.66;73.53;97481.49;1933180;92;27655;-66
2022/02/17 05:23:50;;;;;;;7.92;1.85;;;;;;;7.65;73.66;97485.95;1936489;91;28112;-66
2022/02/17 05:26:52;;;;;;;6.67;1.32;;;;;;;7.63;73.73;97492.40;1938795;91;31897;-67
2022/02/17 05:29:53;;;;;;;6.20;1.60;;;;;;;7.59;73.89;97517.95;1937394;91;33025;-67
2022/02/17 05:32:55;;;;;;;5.67;1.87;;;;;;;7.57;73.97;97505.24;1937164;91;29339;-67
2022/02/17 05:35:57;;;;;;;7.33;1.45;;;;;;;7.55;74.14;97497.03;1939154;91;27723;-67
2022/02/17 05:38:59;;;;;;;3.33;1.15;;;;;;;7.52;74.36;97510.59;1939042;91;29510;-67
2022/02/17 05:42:01;;;;;;;6.03;2.95;;;;;;;7.49;74.58;97518.36;1938818;91;31882;-67
2022/02/17 05:45:04;;;;;;;4.25;1.15;;;;;;;7.47;74.77;97534.09;1938501;91;33091;-67
2022/02/17 05:48:06;;;;;;;3.75;1.10;;;;;;;7.45;75.02;97516.41;1938947;91;29368;-67
2022/02/17 05:51:08;;;;;;;3.70;1.35;;;;;;;7.47;75.09;97488.81;1939100;91;27649;-66
2022/02/17 05:54:09;;;;;;;4.17;1.07;;;;;;;7.44;75.17;97463.28;1938933;91;28678;-66
2022/02/17 05:57:11;;;;;;;3.30;1.10;;;;;;;7.43;75.33;97474.44;1939087;91;32050;-66
2022/02/17 06:00:14;;;;;;;3.33;1.25;;;;;;;7.43;75.39;97480.23;1939030;91;33018;-67
2022/02/17 06:03:16;;;;;;;4.17;1.32;;;;;;;7.43;75.56;97463.78;1939052;91;29517;-66
2022/02/17 06:06:18;;;;;;;8.78;1.17;;;;;;;7.42;75.60;97479.41;1939173;91;27564;-67
2022/02/17 06:09:20;;;;;;;2.33;1.22;;;;;;;7.41;75.64;97471.52;1938459;90;29753;-66
2022/02/17 06:12:22;;;;;;;2.37;1.00;;;;;;;7.40;75.76;97465.83;1938823;91;31936;-67
2022/02/17 06:15:23;;;;;;;3.40;1.45;;;;;;;7.39;75.74;97465.00;1938311;90;32662;-67
2022/02/17 06:18:25;;;;;;;4.28;1.70;;;;;;;7.38;75.83;97469.97;1937425;91;29939;-67
2022/02/17 06:21:27;;;;;;;3.00;1.62;;;;;;;7.38;75.84;97505.92;1937574;90;27670;-67
2022/02/17 06:24:29;;;;;;;5.37;1.37;;;;;;;7.39;76.01;97518.73;1937457;91;29345;-67
2022/02/17 06:27:31;;;;;;;2.35;1.17;;;;;;;7.39;75.97;97524.06;1938736;91;31074;-67
2022/02/17 06:30:32;;;;;;;3.17;1.27;;;;;;;7.42;76.08;97542.46;1939011;90;33793;-67
2022/02/17 06:33:34;;;;;;;4.33;1.20;;;;;;;7.45;76.04;97539.55;1939081;91;29419;-66
2022/02/17 06:36:36;;;;;;;1.77;1.10;;;;;;;7.46;76.21;97539.92;1939198;91;27745;-66
2022/02/17 06:39:38;;;;;;;3.08;1.07;;;;;;;7.49;76.15;97528.16;1939052;90;29477;-67
2022/02/17 06:42:40;;;;;;;5.83;1.00;;;;;;;7.50;76.22;97540.51;1938967;90;31045;-65
2022/02/17 06:45:43;;;;;;;5.90;1.07;;;;;;;7.50;76.19;97566.67;1938996;91;33033;-66
2022/02/17 06:48:45;;;;;;;2.75;1.10;;;;;;;7.48;76.29;97599.25;1939096;91;30363;-67
2022/02/17 06:51:47;;;;;;;3.95;1.05;;;;;;;7.45;76.16;97548.38;1941235;90;27719;-66
2022/02/17 06:54:49;;;;;;;1.75;0.65;;;;;;;7.41;75.85;97519.46;1969776;89;28684;-66
2022/02/17 06:57:51;;;;;;;2.25;0.95;;;;;;;7.35;75.71;97587.89;1969533;90;31037;-67
2022/02/17 07:00:53;;;;;;;6.30;0.88;;;;;;;7.29;75.84;97589.20;1965768;89;32980;-68
2022/02/17 07:03:55;;;;;;;4.70;1.25;;;;;;;7.25;75.67;97589.94;1938994;91;28943;-67
2022/02/17 07:06:57;;;;;;;4.25;0.90;;;;;;;7.21;75.59;97571.18;1939071;91;27744;-67
2022/02/17 07:09:58;;;;;;;4.72;1.45;;;;;;;7.20;75.64;97586.79;1937875;91;28939;-68
2022/02/17 07:13:00;;;;;;;3.90;1.20;;;;;;;7.19;75.71;97597.11;1936610;91;31408;-67
2022/02/17 07:16:02;;;;;;;4.72;1.00;;;;;;;7.20;75.66;97605.92;1935823;91;32952;-68
2022/02/17 07:19:04;;;;;;;3.33;0.88;;;;;;;7.23;75.59;97615.02;1931398;92;30159;-68
2022/02/17 07:22:06;;;;;;;3.17;1.02;;;;;;;7.28;75.67;97619.00;1930731;91;27885;-67
2022/02/17 07:25:08;;;;;;;4.50;1.20;;;;;;;7.36;75.62;97621.05;1933701;91;28684;-68
2022/02/17 07:28:11;;;;;;;2.40;1.00;;;;;;;7.45;75.53;97584.84;1931397;92;31286;-68
2022/02/17 07:31:13;;;;;;;7.00;2.12;;;;;;;7.53;75.42;97582.88;1931287;92;33673;-65
2022/02/17 07:34:15;;;;;;;6.45;1.30;;;;;;;7.58;75.34;97585.53;1933818;91;29444;-67
2022/02/17 07:37:17;;;;;;;3.50;1.25;;;;;;;7.61;75.16;97593.78;1936146;91;27746;-68
2022/02/17 07:40:19;;;;;;;5.05;1.70;;;;;;;7.65;74.89;97592.53;1934722;92;28722;-69
2022/02/17 07:43:22;;;;;;;5.95;1.20;;;;;;;7.64;74.70;97573.52;1935914;91;32025;-67
2022/02/17 07:46:24;;;;;;;6.62;1.47;;;;;;;7.67;74.72;97583.10;1936875;91;33130;-67
2022/02/17 07:49:26;;;;;;;7.15;1.60;;;;;;;7.82;74.84;97564.52;1937062;91;29318;-68
2022/02/17 07:52:28;;;;;;;4.80;1.50;;;;;;;8.11;74.65;97552.41;1936936;91;27755;-67
2022/02/17 07:55:30;;;;;;;3.55;1.55;;;;;;;8.26;74.12;97564.45;1936796;91;28717;-66
2022/02/17 07:58:32;;;;;;;5.17;1.40;;;;;;;8.31;73.43;97549.38;1936921;91;31000;-66
2022/02/17 08:01:33;;;;;;;6.30;1.47;;;;;;;8.32;73.53;97586.58;1936447;91;33789;-67
2022/02/17 08:04:35;;;;;;;6.78;1.52;;;;;;;8.32;73.02;97583.91;1935971;91;29321;-66
2022/02/17 08:07:38;;;;;;;5.78;1.67;;;;;;;8.34;72.90;97573.13;1935277;91;28358;-68
2022/02/17 08:10:40;;;;;;;10.75;1.67;;;;;;;8.35;72.67;97580.16;1935885;90;28751;-67
2022/02/17 08:13:43;;;;;;;4.95;1.70;;;;;;;8.37;72.41;97595.52;1936971;91;31148;-67
2022/02/17 08:16:44;;;;;;;10.28;2.52;;;;;;;8.58;72.71;97603.59;1936859;91;33156;-67
2022/02/17 08:19:46;;;;;;;6.22;2.42;;;;;;;8.92;72.15;97619.85;1936795;91;29563;-67
2022/02/17 08:22:52;;;;;;;4.22;1.27;;;;;;;9.00;71.61;97621.38;1936967;90;27619;-67
2022/02/17 08:25:54;;;;;;;7.90;1.82;;;;;;;9.09;70.43;97620.58;1936771;89;28747;-67
2022/02/17 08:28:58;;;;;;;5.35;1.90;;;;;;;9.14;70.61;97634.86;1937383;90;31901;-67
2022/02/17 08:32:00;;;;;;;5.08;1.30;;;;;;;9.15;70.63;97631.21;1936523;91;33754;-67
2022/02/17 08:35:01;;;;;;;3.80;1.60;;;;;;;9.14;70.02;97634.86;1936689;91;29325;-67
2022/02/17 08:38:03;;;;;;;2.60;1.25;;;;;;;9.12;69.57;97634.14;1936944;91;27816;-67
2022/02/17 08:41:06;;;;;;;5.60;1.65;;;;;;;9.18;69.72;97625.61;1936785;91;28672;-67
2022/02/17 08:44:08;;;;;;;7.25;2.30;;;;;;;9.34;69.56;97630.94;1936866;91;31191;-65
2022/02/17 08:47:10;;;;;;;3.92;1.50;;;;;;;9.42;69.48;97626.61;1936633;91;33341;-66
2022/02/17 08:50:12;;;;;;;7.12;2.02;;;;;;;9.52;68.79;97633.80;1936793;91;29322;-70
2022/02/17 08:53:14;;;;;;;5.60;1.37;;;;;;;9.64;69.26;97619.84;1936891;91;27655;-67
2022/02/17 08:56:15;;;;;;;4.65;1.60;;;;;;;9.82;69.07;97638.77;1936855;91;29722;-64
2022/02/17 08:59:18;;;;;;;11.83;1.37;;;;;;;9.99;68.95;97622.05;1936747;91;31351;-65
2022/02/17 09:02:19;;;;;;;9.30;1.52;;;;;;;10.15;68.46;97615.30;1936819;91;32982;-64
2022/02/17 09:05:21;;;;;;;9.65;1.45;;;;;;;10.31;68.01;97632.11;1936527;91;29382;-65
2022/02/17 09:08:23;;;;;;;7.90;1.27;;;;;;;10.42;66.93;97620.45;1936871;90;27763;-64
2022/02/17 09:11:25;;;;;;;6.30;1.27;;;;;;;10.51;66.13;97606.72;1936542;90;29501;-64
2022/02/17 09:14:27;;;;;;;7.35;2.20;;;;;;;10.57;65.82;97615.02;1931134;91;31905;-63
2022/02/17 09:17:29;;;;;;;5.37;1.30;;;;;;;10.68;65.27;97597.09;1932020;91;33048;-64
2022/02/17 09:20:32;;;;;;;4.20;1.55;;;;;;;10.75;65.15;97603.09;1936815;90;29413;-63
2022/02/17 09:23:35;;;;;;;5.30;1.30;;;;;;;10.83;65.13;97602.38;1936488;91;27753;-65
2022/02/17 09:26:37;;;;;;;5.70;1.42;;;;;;;10.92;64.65;97615.39;1934197;91;28698;-66
2022/02/17 09:29:40;;;;;;;6.12;1.62;;;;;;;11.00;62.73;97603.95;1935604;91;31861;-62
2022/02/17 09:32:42;;;;;;;3.47;1.30;;;;;;;11.06;63.38;97591.28;1934658;91;33784;-64
2022/02/17 09:35:44;;;;;;;4.85;1.40;;;;;;;11.11;62.27;97605.09;1936896;91;29172;-63
2022/02/17 09:38:45;;;;;;;3.75;1.32;;;;;;;11.10;62.24;97609.59;1937006;91;27735;-65
2022/02/17 09:41:48;;;;;;;7.55;1.70;;;;;;;11.16;62.74;97607.33;1937026;91;29479;-66
2022/02/17 09:44:50;;;;;;;18.80;3.15;;;;;;;11.25;61.43;97627.91;1936728;91;31047;-62
2022/02/17 09:47:52;;;;;;;7.08;1.70;;;;;;;11.30;61.00;97616.73;1936953;91;33025;-66
2022/02/17 09:50:54;;;;;;;6.30;1.90;;;;;;;11.32;60.48;97608.05;1937007;91;29388;-64
2022/02/17 09:53:56;;;;;;;5.87;1.82;;;;;;;11.33;60.25;97607.89;1937005;91;28264;-64
2022/02/17 09:56:58;;;;;;;4.90;1.65;;;;;;;11.39;59.01;97606.45;1936885;91;28830;-65
2022/02/17 10:00:00;;;;;;;6.20;2.00;;;;;;;11.38;59.17;97633.77;1936861;91;31957;-65
2022/02/17 10:03:26;;;;;;;4.83;1.00;;;;;;;11.40;58.80;97623.75;1936994;91;32995;-65
2022/02/17 10:06:27;;;;;;;;;;;;;;;11.45;58.32;97638.52;1938945;91;30377;-66
2022/02/17 10:09:42;;;;;;;5.75;1.40;;;;;;;11.47;58.05;97636.54;1937117;91;27693;-64
2022/02/17 10:13:04;;;;;;;7.45;1.52;;;;;;;11.47;57.78;97637.41;1923677;92;28671;-64
2022/02/17 10:16:06;;;;;;;6.97;1.77;;;;;;;11.46;56.03;97626.81;1932391;91;31079;-68
2022/02/17 10:19:11;;;;;;;5.92;1.32;;;;;;;11.45;56.72;97632.68;1932401;92;32981;-63
2022/02/17 10:22:16;;;;;;;4.20;1.10;;;;;;;11.51;55.75;97621.85;1931017;91;29419;-66
2022/02/17 10:25:20;;;;;;;6.33;1.10;;;;;;;11.54;55.49;97629.61;1930857;91;27732;-68
2022/02/17 10:28:23;;;;;;;4.20;1.10;;;;;;;11.56;55.77;97646.39;1931167;92;28696;-64
2022/02/17 10:31:35;;;;;;;6.90;2.52;;;;;;;11.62;56.11;97642.27;1932245;91;31040;-66
2022/02/17 10:34:37;;;;;;;2.30;1.00;;;;;;;11.70;55.15;97653.94;1932442;91;33785;-68
2022/02/17 10:37:55;;;;;;;6.78;1.55;;;;;;;11.84;54.47;97687.45;1932453;91;30143;-64
2022/02/17 10:40:57;;;;;;;2.92;1.05;;;;;;;11.91;54.52;97678.33;1932642;91;27766;-69
2022/02/17 10:44:06;;;;;;;4.58;1.12;;;;;;;12.03;54.18;97679.48;1932404;92;28686;-69
2022/02/17 10:47:23;;;;;;;7.03;1.47;;;;;;;12.10;54.17;97683.23;1932191;89;31035;-67
2022/02/17 10:50:25;;;;;;;6.20;1.60;;;;;;;12.24;54.25;97680.55;1936889;91;33138;-64
2022/02/17 10:53:27;;;;;;;5.85;1.25;;;;;;;12.38;54.29;97690.76;1946330;91;29331;-65
2022/02/17 10:56:33;;;;;;;5.10;1.75;;;;;;;12.49;53.27;97690.20;1955552;90;27732;-65
2022/02/17 11:02:58;;;;;;;5.58;1.55;;;;;;;12.68;53.34;97698.08;1954977;91;31163;-72
2022/02/17 11:06:04;;;;;;;6.12;1.37;;;;;;;12.75;53.04;97700.50;1955518;90;33075;-70
2022/02/17 11:09:06;;;;;;;5.35;1.35;;;;;;;12.78;51.54;97702.55;1955655;91;28948;-66
2022/02/17 11:12:08;;;;;;;4.90;1.90;;;;;;;12.74;50.25;97702.84;1963090;89;27803;-63
2022/02/17 11:15:10;;;;;;;8.78;1.15;;;;;;;12.72;52.00;97732.22;1967365;90;28709;-65
2022/02/17 11:18:12;;;;;;;4.97;1.60;;;;;;;12.71;51.36;97702.32;1967407;90;31050;-68
2022/02/17 11:21:17;;;;;;;4.20;1.10;;;;;;;12.69;50.66;97733.86;1967422;90;32973;-65
2022/02/17 11:24:19;;;;;;;5.15;1.27;;;;;;;12.59;50.02;97726.70;1967474;90;30133;-63
2022/02/17 11:27:23;;;;;;;5.30;1.27;;;;;;;12.53;50.50;97742.59;1967435;90;27692;-65
2022/02/17 11:30:31;;;;;;;7.37;1.35;;;;;;;12.50;50.45;97742.41;1934743;90;28680;-64
2022/02/17 11:33:38;;;;;;;3.50;1.05;;;;;;;12.46;50.52;97736.50;1933215;92;31161;-66
2022/02/17 11:36:40;;;;;;;5.35;1.60;;;;;;;12.50;50.57;97749.59;1932873;92;33039;-65
2022/02/17 11:40:07;;;;;;;5.22;1.65;;;;;;;12.53;49.89;97758.70;1933807;92;29395;-70
2022/02/17 11:43:10;;;;;;;5.80;2.75;;;;;;;12.49;49.54;97741.23;1933252;92;28291;-66
2022/02/17 11:46:16;;;;;;;6.87;2.12;;;;;;;12.49;49.23;97766.22;1954416;90;29505;-65
2022/02/17 11:49:36;;;;;;;7.12;1.65;;;;;;;12.51;49.17;97762.89;1967339;90;31949;-63
2022/02/17 11:52:38;;;;;;;7.12;2.22;;;;;;;12.62;48.89;97775.27;1966812;89;32985;-63
2022/02/17 11:55:39;;;;;;;3.37;1.30;;;;;;;12.75;48.81;97777.07;1967420;90;29539;-68
2022/02/17 11:58:53;;;;;;;6.85;1.70;;;;;;;12.78;47.94;97783.97;1967636;90;27761;-64
2022/02/17 12:02:00;;;;;;;12.60;2.65;;;;;;;12.74;48.12;97780.75;1949151;90;28681;-62
2022/02/17 12:05:16;;;;;;;5.67;1.40;;;;;;;12.78;48.61;97804.63;1932714;92;31075;-61
2022/02/17 12:08:22;;;;;;;5.28;1.52;;;;;;;12.80;48.10;97814.22;1934079;91;32879;-63
2022/02/17 12:11:31;;;;;;;4.35;1.95;;;;;;;12.75;48.08;97813.34;1908940;92;29505;-62
2022/02/17 12:14:33;;;;;;;4.08;1.47;;;;;;;12.69;48.07;97821.99;1952630;90;28067;-64
2022/02/17 12:17:38;;;;;;;6.17;1.45;;;;;;;12.67;48.24;97821.81;1936419;91;29169;-65
2022/02/17 12:20:41;;;;;;;8.35;2.20;;;;;;;12.66;48.24;97814.23;1958377;90;31091;-69
2022/02/17 12:23:45;;;;;;;6.78;1.65;;;;;;;12.64;47.79;97820.77;1936290;91;32195;-64
2022/02/17 12:26:55;;;;;;;8.73;2.70;;;;;;;12.59;47.12;97842.19;1958492;90;30201;-65
2022/02/17 12:29:57;;;;;;;7.75;2.77;;;;;;;12.44;48.14;97822.20;1936870;90;27676;-69
2022/02/17 12:33:22;;;;;;;5.62;2.00;;;;;;;12.55;47.85;97830.56;1958075;88;28724;-63
2022/02/17 12:36:30;;;;;;;7.62;3.20;;;;;;;12.52;47.62;97818.77;1936766;91;32648;-63
2022/02/17 12:39:32;;;;;;;7.00;1.50;;;;;;;12.50;48.04;97861.04;1957737;89;33848;-65
2022/02/17 12:42:41;;;;;;;6.95;1.55;;;;;;;12.48;47.17;97849.63;1936391;91;29320;-65
2022/02/17 12:45:46;;;;;;;5.67;2.02;;;;;;;12.41;47.37;97862.30;1958174;90;27689;-64
2022/02/17 12:48:48;;;;;;;;;;;;;;;12.34;47.44;97863.04;1938850;91;28891;-70
2022/02/17 12:51:51;;;;;;;7.70;2.10;;;;;;;12.27;48.05;97861.45;1958200;90;32352;-63
2022/02/17 12:54:56;;;;;;;7.62;2.42;;;;;;;12.24;47.62;97880.52;1936526;91;32990;-65
2022/02/17 12:57:57;;;;;;;5.10;2.35;;;;;;;12.24;47.72;97857.70;1958078;90;29213;-66
2022/02/17 13:01:01;;;;;;;7.95;1.90;;;;;;;12.26;47.65;97875.34;1935731;91;28232;-66
2022/02/17 13:04:04;;;;;;;6.42;2.08;;;;;;;12.33;47.49;97864.86;1956545;90;28730;-65
2022/02/17 13:07:08;;;;;;;9.48;1.85;;;;;;;12.34;46.92;97878.64;1932723;91;32076;-68
2022/02/17 13:10:11;;;;;;;9.70;2.67;;;;;;;12.37;47.11;97893.62;1957281;90;33847;-69
2022/02/17 13:13:16;;;;;;;5.42;2.00;;;;;;;12.29;47.35;97896.53;1958030;90;30374;-64
2022/02/17 13:16:19;;;;;;;7.35;2.08;;;;;;;12.25;47.81;97894.30;1958079;90;27646;-64
2022/02/17 13:19:43;;;;;;;9.68;2.95;;;;;;;12.19;47.42;97897.55;1956795;90;28865;-63
2022/02/17 13:22:45;;;;;;;8.78;2.70;;;;;;;12.13;48.02;97901.67;1928213;92;31168;-62
2022/02/17 13:25:47;;;;;;;7.47;2.77;;;;;;;12.09;48.02;97915.89;1927432;92;34205;-64
2022/02/17 13:28:52;;;;;;;6.20;2.10;;;;;;;12.05;47.69;97931.92;1939194;91;30502;-65
2022/02/17 13:31:54;;;;;;;9.25;2.75;;;;;;;11.95;48.01;97914.98;1939286;91;27674;-63
2022/02/17 13:35:08;;;;;;;9.33;3.72;;;;;;;11.89;48.56;97924.45;1938909;91;29966;-62
2022/02/17 13:38:10;;;;;;;10.28;3.55;;;;;;;11.86;48.33;97918.86;1939375;91;31074;-67
2022/02/17 13:41:13;;;;;;;5.45;2.02;;;;;;;11.79;48.30;97936.53;1939129;91;33528;-62
2022/02/17 13:44:20;;;;;;;28.15;15.03;;;;;;;11.73;48.24;97926.36;1938939;91;30625;-62
2022/02/17 13:47:36;;;;;;;18.77;9.18;;;;;;;11.64;48.58;97924.03;1938847;91;27681;-62
2022/02/17 13:50:38;;;;;;;15.68;8.80;;;;;;;11.58;48.58;97937.17;1938829;91;28713;-68
2022/02/17 13:53:45;;;;;;;10.50;3.60;;;;;;;11.52;48.98;97944.78;1938748;91;31469;-63
2022/02/17 13:56:47;;;;;;;9.55;2.10;;;;;;;11.43;48.53;97950.13;1939165;91;32990;-62
2022/02/17 13:59:50;;;;;;;8.88;2.05;;;;;;;11.36;48.91;97960.57;1939026;91;30189;-65
2022/02/17 14:02:52;;;;;;;4.90;1.85;;;;;;;11.25;48.34;97985.19;1939339;91;28157;-67
2022/02/17 14:05:58;;;;;;;12.88;2.17;;;;;;;11.09;48.83;97996.41;1939001;91;29559;-64
2022/02/17 14:09:00;;;;;;;8.43;2.00;;;;;;;11.07;49.54;98000.22;1939097;90;31121;-68
2022/02/17 14:12:04;;;;;;;6.42;1.80;;;;;;;11.11;49.61;97984.23;1938347;90;34350;-64
2022/02/17 14:15:07;;;;;;;8.25;2.12;;;;;;;11.17;49.47;98005.61;1936777;91;30284;-65
2022/02/17 14:18:09;;;;;;;5.50;1.72;;;;;;;11.21;49.54;98025.80;1981961;89;28253;-67
2022/02/17 14:21:12;;;;;;;7.10;2.02;;;;;;;11.23;49.49;98011.78;1936530;91;29277;-69
2022/02/17 14:24:14;;;;;;;6.08;1.80;;;;;;;11.17;49.27;98033.75;1957998;90;31946;-67
2022/02/17 14:27:16;;;;;;;5.70;1.42;;;;;;;11.10;49.48;98057.06;1936688;91;32535;-69
2022/02/17 14:30:18;;;;;;;4.97;1.98;;;;;;;11.08;49.84;98046.13;1957782;90;30517;-67
2022/02/17 14:33:21;;;;;;;10.55;2.10;;;;;;;10.99;49.36;98081.28;1935947;91;27759;-63
2022/02/17 14:36:24;;;;;;;7.87;2.45;;;;;;;10.86;49.27;98074.80;1957567;90;29396;-61